sensor_id;sensor_type;location;lat;lon;timestamp;P1;durP1;ratioP1;P2;durP2;ratioP2
16242;SDS011;11719;51.052;6.982;2023-11-21T00:00:18;3.87;;;2.80;;
16242;SDS011;11719;51.052;6.982;2023-11-21T00:02:45;5.03;;;2.80;;
16242;SDS011;11719;51.052;6.982;2023-11-21T00:05:11;5.33;;;3.43;;
16242;SDS011;11719;51.052;6.982;2023-11-21T00:07:41;4.83;;;2.87;;
16242;SDS011;11719;51.052;6.982;2023-11-21T00:10:09;7.23;;;3.10;;
16242;SDS011;11719;51.052;6.982;2023-11-21T00:12:37;5.67;;;3.87;;
16242;SDS011;11719;51.052;6.982;2023-11-21T00:15:03;3.77;;;2.13;;
16242;SDS011;11719;51.052;6.982;2023-11-21T00:17:36;2.33;;;1.53;;
16242;SDS011;11719;51.052;6.982;2023-11-21T00:20:03;6.40;;;2.93;;
16242;SDS011;11719;51.052;6.982;2023-11-21T00:22:32;1.80;;;1.37;;
16242;SDS011;11719;51.052;6.982;2023-11-21T00:24:59;3.87;;;2.83;;
16242;SDS011;11719;51.052;6.982;2023-11-21T00:27:25;3.83;;;2.90;;
16242;SDS011;11719;51.052;6.982;2023-11-21T00:29:51;5.57;;;2.77;;
16242;SDS011;11719;51.052;6.982;2023-11-21T00:32:17;2.57;;;1.60;;
16242;SDS011;11719;51.052;6.982;2023-11-21T00:34:42;5.83;;;3.27;;
16242;SDS011;11719;51.052;6.982;2023-11-21T00:37:09;14.47;;;5.50;;
16242;SDS011;11719;51.052;6.982;2023-11-21T00:39:34;3.00;;;2.37;;
16242;SDS011;11719;51.052;6.982;2023-11-21T00:42:00;7.60;;;3.90;;
16242;SDS011;11719;51.052;6.982;2023-11-21T00:44:26;2.57;;;2.13;;
16242;SDS011;11719;51.052;6.982;2023-11-21T00:46:52;5.13;;;3.20;;
16242;SDS011;11719;51.052;6.982;2023-11-21T00:49:18;3.67;;;1.80;;
16242;SDS011;11719;51.052;6.982;2023-11-21T00:51:44;4.80;;;2.97;;
16242;SDS011;11719;51.052;6.982;2023-11-21T00:54:10;5.60;;;3.00;;
16242;SDS011;11719;51.052;6.982;2023-11-21T00:56:36;8.73;;;3.70;;
16242;SDS011;11719;51.052;6.982;2023-11-21T00:59:02;5.10;;;2.83;;
16242;SDS011;11719;51.052;6.982;2023-11-21T01:01:30;5.57;;;2.67;;
16242;SDS011;11719;51.052;6.982;2023-11-21T01:03:55;2.57;;;1.93;;
16242;SDS011;11719;51.052;6.982;2023-11-21T01:06:21;3.20;;;1.60;;
16242;SDS011;11719;51.052;6.982;2023-11-21T01:08:47;4.13;;;2.33;;
16242;SDS011;11719;51.052;6.982;2023-11-21T01:11:13;4.73;;;1.53;;
16242;SDS011;11719;51.052;6.982;2023-11-21T01:13:39;6.00;;;3.23;;
16242;SDS011;11719;51.052;6.982;2023-11-21T01:16:06;4.67;;;3.00;;
16242;SDS011;11719;51.052;6.982;2023-11-21T01:18:32;3.83;;;2.50;;
16242;SDS011;11719;51.052;6.982;2023-11-21T01:20:59;4.43;;;2.73;;
16242;SDS011;11719;51.052;6.982;2023-11-21T01:23:25;5.23;;;3.23;;
16242;SDS011;11719;51.052;6.982;2023-11-21T01:25:52;6.00;;;3.53;;
16242;SDS011;11719;51.052;6.982;2023-11-21T01:28:20;4.73;;;2.70;;
16242;SDS011;11719;51.052;6.982;2023-11-21T01:30:46;4.03;;;2.73;;
16242;SDS011;11719;51.052;6.982;2023-11-21T01:33:13;4.23;;;2.93;;
16242;SDS011;11719;51.052;6.982;2023-11-21T01:35:43;5.20;;;2.73;;
16242;SDS011;11719;51.052;6.982;2023-11-21T01:38:11;3.73;;;3.13;;
16242;SDS011;11719;51.052;6.982;2023-11-21T01:40:37;6.93;;;3.07;;
16242;SDS011;11719;51.052;6.982;2023-11-21T01:43:03;3.90;;;2.80;;
16242;SDS011;11719;51.052;6.982;2023-11-21T01:45:29;3.10;;;2.13;;
16242;SDS011;11719;51.052;6.982;2023-11-21T01:47:58;5.17;;;2.87;;
16242;SDS011;11719;51.052;6.982;2023-11-21T01:50:26;4.10;;;1.80;;
16242;SDS011;11719;51.052;6.982;2023-11-21T01:52:52;3.50;;;2.43;;
16242;SDS011;11719;51.052;6.982;2023-11-21T01:55:19;3.60;;;2.47;;
16242;SDS011;11719;51.052;6.982;2023-11-21T01:57:46;4.27;;;2.80;;
16242;SDS011;11719;51.052;6.982;2023-11-21T02:00:12;3.97;;;2.10;;
16242;SDS011;11719;51.052;6.982;2023-11-21T02:02:45;4.97;;;2.33;;
16242;SDS011;11719;51.052;6.982;2023-11-21T02:05:13;4.60;;;3.20;;
16242;SDS011;11719;51.052;6.982;2023-11-21T02:07:43;4.70;;;2.43;;
16242;SDS011;11719;51.052;6.982;2023-11-21T02:10:10;4.00;;;2.60;;
16242;SDS011;11719;51.052;6.982;2023-11-21T02:12:42;3.80;;;2.60;;
16242;SDS011;11719;51.052;6.982;2023-11-21T02:15:12;6.90;;;3.33;;
16242;SDS011;11719;51.052;6.982;2023-11-21T02:17:45;4.53;;;3.00;;
16242;SDS011;11719;51.052;6.982;2023-11-21T02:20:14;4.30;;;3.43;;
16242;SDS011;11719;51.052;6.982;2023-11-21T02:22:41;3.60;;;2.80;;
16242;SDS011;11719;51.052;6.982;2023-11-21T02:25:08;5.13;;;3.70;;
16242;SDS011;11719;51.052;6.982;2023-11-21T02:27:34;5.43;;;3.13;;
16242;SDS011;11719;51.052;6.982;2023-11-21T02:29:59;5.17;;;2.90;;
16242;SDS011;11719;51.052;6.982;2023-11-21T02:32:26;6.37;;;2.90;;
16242;SDS011;11719;51.052;6.982;2023-11-21T02:34:52;4.57;;;3.07;;
16242;SDS011;11719;51.052;6.982;2023-11-21T02:37:20;5.37;;;3.37;;
16242;SDS011;11719;51.052;6.982;2023-11-21T02:39:46;3.77;;;3.17;;
16242;SDS011;11719;51.052;6.982;2023-11-21T02:42:12;3.80;;;2.83;;
16242;SDS011;11719;51.052;6.982;2023-11-21T02:44:38;4.23;;;3.10;;
16242;SDS011;11719;51.052;6.982;2023-11-21T02:47:04;5.10;;;3.23;;
16242;SDS011;11719;51.052;6.982;2023-11-21T02:49:30;4.33;;;3.33;;
16242;SDS011;11719;51.052;6.982;2023-11-21T02:51:56;3.77;;;2.47;;
16242;SDS011;11719;51.052;6.982;2023-11-21T02:54:22;5.60;;;3.13;;
16242;SDS011;11719;51.052;6.982;2023-11-21T02:56:48;4.60;;;2.90;;
16242;SDS011;11719;51.052;6.982;2023-11-21T02:59:15;4.20;;;2.60;;
16242;SDS011;11719;51.052;6.982;2023-11-21T03:01:41;4.30;;;3.30;;
16242;SDS011;11719;51.052;6.982;2023-11-21T03:04:07;5.23;;;3.30;;
16242;SDS011;11719;51.052;6.982;2023-11-21T03:06:33;4.03;;;2.57;;
16242;SDS011;11719;51.052;6.982;2023-11-21T03:08:59;5.37;;;2.77;;
16242;SDS011;11719;51.052;6.982;2023-11-21T03:11:25;4.57;;;2.70;;
16242;SDS011;11719;51.052;6.982;2023-11-21T03:13:51;3.97;;;2.47;;
16242;SDS011;11719;51.052;6.982;2023-11-21T03:16:18;8.47;;;3.90;;
16242;SDS011;11719;51.052;6.982;2023-11-21T03:18:44;4.60;;;3.50;;
16242;SDS011;11719;51.052;6.982;2023-11-21T03:21:10;4.77;;;3.23;;
16242;SDS011;11719;51.052;6.982;2023-11-21T03:23:37;6.80;;;3.47;;
16242;SDS011;11719;51.052;6.982;2023-11-21T03:26:03;6.13;;;3.43;;
16242;SDS011;11719;51.052;6.982;2023-11-21T03:28:29;6.00;;;3.63;;
16242;SDS011;11719;51.052;6.982;2023-11-21T03:30:55;4.90;;;3.83;;
16242;SDS011;11719;51.052;6.982;2023-11-21T03:33:21;5.23;;;3.57;;
16242;SDS011;11719;51.052;6.982;2023-11-21T03:35:47;4.57;;;3.20;;
16242;SDS011;11719;51.052;6.982;2023-11-21T03:38:14;5.73;;;3.57;;
16242;SDS011;11719;51.052;6.982;2023-11-21T03:40:41;4.07;;;3.27;;
16242;SDS011;11719;51.052;6.982;2023-11-21T03:43:07;4.60;;;2.83;;
16242;SDS011;11719;51.052;6.982;2023-11-21T03:45:33;5.07;;;3.50;;
16242;SDS011;11719;51.052;6.982;2023-11-21T03:47:58;8.47;;;3.77;;
16242;SDS011;11719;51.052;6.982;2023-11-21T03:50:26;5.97;;;2.93;;
16242;SDS011;11719;51.052;6.982;2023-11-21T03:52:55;4.10;;;2.57;;
16242;SDS011;11719;51.052;6.982;2023-11-21T03:55:20;3.67;;;1.70;;
16242;SDS011;11719;51.052;6.982;2023-11-21T03:57:48;3.53;;;2.07;;
16242;SDS011;11719;51.052;6.982;2023-11-21T04:00:14;5.70;;;3.53;;
16242;SDS011;11719;51.052;6.982;2023-11-21T04:02:41;4.80;;;2.80;;
16242;SDS011;11719;51.052;6.982;2023-11-21T04:05:06;3.70;;;2.77;;
16242;SDS011;11719;51.052;6.982;2023-11-21T04:07:32;5.27;;;3.17;;
16242;SDS011;11719;51.052;6.982;2023-11-21T04:09:59;4.03;;;3.00;;
16242;SDS011;11719;51.052;6.982;2023-11-21T04:12:25;5.70;;;2.97;;
16242;SDS011;11719;51.052;6.982;2023-11-21T04:14:51;8.13;;;4.43;;
16242;SDS011;11719;51.052;6.982;2023-11-21T04:17:19;5.57;;;2.80;;
16242;SDS011;11719;51.052;6.982;2023-11-21T04:19:46;6.23;;;3.10;;
16242;SDS011;11719;51.052;6.982;2023-11-21T04:22:12;4.10;;;2.70;;
16242;SDS011;11719;51.052;6.982;2023-11-21T04:24:38;4.50;;;2.70;;
16242;SDS011;11719;51.052;6.982;2023-11-21T04:27:04;5.77;;;2.60;;
16242;SDS011;11719;51.052;6.982;2023-11-21T04:29:30;2.80;;;1.73;;
16242;SDS011;11719;51.052;6.982;2023-11-21T04:31:55;6.27;;;3.63;;
16242;SDS011;11719;51.052;6.982;2023-11-21T04:34:21;3.70;;;2.97;;
16242;SDS011;11719;51.052;6.982;2023-11-21T04:36:47;4.07;;;2.80;;
16242;SDS011;11719;51.052;6.982;2023-11-21T04:39:15;3.27;;;2.10;;
16242;SDS011;11719;51.052;6.982;2023-11-21T04:41:40;1.67;;;1.40;;
16242;SDS011;11719;51.052;6.982;2023-11-21T04:44:07;2.13;;;1.30;;
16242;SDS011;11719;51.052;6.982;2023-11-21T04:46:33;7.63;;;2.67;;
16242;SDS011;11719;51.052;6.982;2023-11-21T04:48:59;6.40;;;3.20;;
16242;SDS011;11719;51.052;6.982;2023-11-21T04:51:24;5.47;;;2.87;;
16242;SDS011;11719;51.052;6.982;2023-11-21T04:53:50;3.27;;;1.63;;
16242;SDS011;11719;51.052;6.982;2023-11-21T04:56:16;5.57;;;2.87;;
16242;SDS011;11719;51.052;6.982;2023-11-21T04:58:42;5.60;;;3.30;;
16242;SDS011;11719;51.052;6.982;2023-11-21T05:01:08;3.30;;;2.30;;
16242;SDS011;11719;51.052;6.982;2023-11-21T05:03:33;4.10;;;3.30;;
16242;SDS011;11719;51.052;6.982;2023-11-21T05:06:00;7.17;;;3.93;;
16242;SDS011;11719;51.052;6.982;2023-11-21T05:08:26;7.37;;;3.37;;
16242;SDS011;11719;51.052;6.982;2023-11-21T05:10:52;3.33;;;1.77;;
16242;SDS011;11719;51.052;6.982;2023-11-21T05:13:18;4.00;;;2.03;;
16242;SDS011;11719;51.052;6.982;2023-11-21T05:15:45;6.20;;;2.70;;
16242;SDS011;11719;51.052;6.982;2023-11-21T05:18:11;7.00;;;2.83;;
16242;SDS011;11719;51.052;6.982;2023-11-21T05:20:38;3.73;;;2.63;;
16242;SDS011;11719;51.052;6.982;2023-11-21T05:23:06;4.93;;;3.40;;
16242;SDS011;11719;51.052;6.982;2023-11-21T05:25:33;5.63;;;3.27;;
16242;SDS011;11719;51.052;6.982;2023-11-21T05:27:59;4.60;;;3.17;;
16242;SDS011;11719;51.052;6.982;2023-11-21T05:30:26;4.90;;;2.83;;
16242;SDS011;11719;51.052;6.982;2023-11-21T05:32:53;6.40;;;3.63;;
16242;SDS011;11719;51.052;6.982;2023-11-21T05:35:18;5.90;;;3.80;;
16242;SDS011;11719;51.052;6.982;2023-11-21T05:37:44;7.23;;;3.93;;
16242;SDS011;11719;51.052;6.982;2023-11-21T05:40:11;4.63;;;3.23;;
16242;SDS011;11719;51.052;6.982;2023-11-21T05:42:38;15.53;;;10.10;;
16242;SDS011;11719;51.052;6.982;2023-11-21T05:45:06;3.93;;;2.70;;
16242;SDS011;11719;51.052;6.982;2023-11-21T05:47:42;7.40;;;4.20;;
16242;SDS011;11719;51.052;6.982;2023-11-21T05:50:11;7.23;;;4.50;;
16242;SDS011;11719;51.052;6.982;2023-11-21T05:52:42;8.27;;;4.47;;
16242;SDS011;11719;51.052;6.982;2023-11-21T05:55:10;8.40;;;3.20;;
16242;SDS011;11719;51.052;6.982;2023-11-21T05:57:37;3.60;;;2.63;;
16242;SDS011;11719;51.052;6.982;2023-11-21T06:02:39;6.67;;;3.00;;
16242;SDS011;11719;51.052;6.982;2023-11-21T06:05:08;5.97;;;3.87;;
16242;SDS011;11719;51.052;6.982;2023-11-21T06:07:35;5.23;;;2.80;;
16242;SDS011;11719;51.052;6.982;2023-11-21T06:10:03;7.37;;;3.00;;
16242;SDS011;11719;51.052;6.982;2023-11-21T06:12:36;7.97;;;4.00;;
16242;SDS011;11719;51.052;6.982;2023-11-21T06:15:04;6.30;;;2.93;;
16242;SDS011;11719;51.052;6.982;2023-11-21T06:17:32;6.50;;;3.77;;
16242;SDS011;11719;51.052;6.982;2023-11-21T06:20:01;5.37;;;2.87;;
16242;SDS011;11719;51.052;6.982;2023-11-21T06:22:34;6.50;;;3.50;;
16242;SDS011;11719;51.052;6.982;2023-11-21T06:25:04;5.37;;;2.97;;
16242;SDS011;11719;51.052;6.982;2023-11-21T06:27:51;6.10;;;3.83;;
16242;SDS011;11719;51.052;6.982;2023-11-21T06:30:18;6.73;;;4.20;;
16242;SDS011;11719;51.052;6.982;2023-11-21T06:32:45;5.70;;;3.03;;
16242;SDS011;11719;51.052;6.982;2023-11-21T06:35:11;5.53;;;2.77;;
16242;SDS011;11719;51.052;6.982;2023-11-21T06:37:38;5.23;;;2.93;;
16242;SDS011;11719;51.052;6.982;2023-11-21T06:40:04;9.03;;;3.50;;
16242;SDS011;11719;51.052;6.982;2023-11-21T06:42:31;6.77;;;4.07;;
16242;SDS011;11719;51.052;6.982;2023-11-21T06:44:58;5.23;;;2.60;;
16242;SDS011;11719;51.052;6.982;2023-11-21T06:47:27;5.00;;;2.70;;
16242;SDS011;11719;51.052;6.982;2023-11-21T06:49:54;8.53;;;4.27;;
16242;SDS011;11719;51.052;6.982;2023-11-21T06:52:21;5.90;;;2.57;;
16242;SDS011;11719;51.052;6.982;2023-11-21T06:54:47;5.73;;;3.13;;
16242;SDS011;11719;51.052;6.982;2023-11-21T06:57:16;6.47;;;3.93;;
16242;SDS011;11719;51.052;6.982;2023-11-21T06:59:42;6.00;;;3.90;;
16242;SDS011;11719;51.052;6.982;2023-11-21T07:02:09;4.77;;;2.70;;
16242;SDS011;11719;51.052;6.982;2023-11-21T07:04:35;11.57;;;4.13;;
16242;SDS011;11719;51.052;6.982;2023-11-21T07:07:04;7.60;;;4.40;;
16242;SDS011;11719;51.052;6.982;2023-11-21T07:09:32;5.37;;;3.43;;
16242;SDS011;11719;51.052;6.982;2023-11-21T07:11:57;6.10;;;3.47;;
16242;SDS011;11719;51.052;6.982;2023-11-21T07:14:24;7.37;;;4.30;;
16242;SDS011;11719;51.052;6.982;2023-11-21T07:16:50;7.33;;;3.63;;
16242;SDS011;11719;51.052;6.982;2023-11-21T07:19:17;10.03;;;5.80;;
16242;SDS011;11719;51.052;6.982;2023-11-21T07:21:44;11.30;;;5.77;;
16242;SDS011;11719;51.052;6.982;2023-11-21T07:24:10;12.67;;;5.63;;
16242;SDS011;11719;51.052;6.982;2023-11-21T07:26:36;9.03;;;4.47;;
16242;SDS011;11719;51.052;6.982;2023-11-21T07:29:02;13.13;;;5.67;;
16242;SDS011;11719;51.052;6.982;2023-11-21T07:31:29;10.10;;;6.30;;
16242;SDS011;11719;51.052;6.982;2023-11-21T07:33:59;9.10;;;5.27;;
16242;SDS011;11719;51.052;6.982;2023-11-21T07:36:26;11.37;;;5.80;;
16242;SDS011;11719;51.052;6.982;2023-11-21T07:38:53;12.17;;;5.60;;
16242;SDS011;11719;51.052;6.982;2023-11-21T07:41:19;12.17;;;6.53;;
16242;SDS011;11719;51.052;6.982;2023-11-21T07:43:45;12.93;;;7.30;;
16242;SDS011;11719;51.052;6.982;2023-11-21T07:46:12;15.97;;;8.60;;
16242;SDS011;11719;51.052;6.982;2023-11-21T07:48:39;13.67;;;7.53;;
16242;SDS011;11719;51.052;6.982;2023-11-21T07:51:07;17.93;;;7.90;;
16242;SDS011;11719;51.052;6.982;2023-11-21T07:53:34;13.83;;;5.67;;
16242;SDS011;11719;51.052;6.982;2023-11-21T07:56:04;19.10;;;8.73;;
16242;SDS011;11719;51.052;6.982;2023-11-21T07:58:32;15.87;;;8.10;;
16242;SDS011;11719;51.052;6.982;2023-11-21T08:01:02;17.93;;;8.47;;
16242;SDS011;11719;51.052;6.982;2023-11-21T08:03:28;15.33;;;6.60;;
16242;SDS011;11719;51.052;6.982;2023-11-21T08:05:55;12.23;;;7.40;;
16242;SDS011;11719;51.052;6.982;2023-11-21T08:08:23;16.03;;;7.90;;
16242;SDS011;11719;51.052;6.982;2023-11-21T08:10:49;15.73;;;7.80;;
16242;SDS011;11719;51.052;6.982;2023-11-21T08:13:25;15.57;;;7.37;;
16242;SDS011;11719;51.052;6.982;2023-11-21T08:15:55;12.10;;;6.43;;
16242;SDS011;11719;51.052;6.982;2023-11-21T08:18:30;17.97;;;8.00;;
16242;SDS011;11719;51.052;6.982;2023-11-21T08:20:56;15.57;;;7.23;;
16242;SDS011;11719;51.052;6.982;2023-11-21T08:23:22;15.43;;;8.10;;
16242;SDS011;11719;51.052;6.982;2023-11-21T08:25:50;13.47;;;7.10;;
16242;SDS011;11719;51.052;6.982;2023-11-21T08:28:18;20.03;;;9.67;;
16242;SDS011;11719;51.052;6.982;2023-11-21T08:30:44;15.93;;;7.63;;
16242;SDS011;11719;51.052;6.982;2023-11-21T08:33:10;14.03;;;7.53;;
16242;SDS011;11719;51.052;6.982;2023-11-21T08:35:38;12.63;;;7.00;;
16242;SDS011;11719;51.052;6.982;2023-11-21T08:38:04;16.13;;;8.07;;
16242;SDS011;11719;51.052;6.982;2023-11-21T08:40:30;15.20;;;7.53;;
16242;SDS011;11719;51.052;6.982;2023-11-21T08:42:57;13.87;;;7.33;;
16242;SDS011;11719;51.052;6.982;2023-11-21T08:45:24;16.73;;;8.30;;
16242;SDS011;11719;51.052;6.982;2023-11-21T08:47:51;17.00;;;7.97;;
16242;SDS011;11719;51.052;6.982;2023-11-21T08:50:17;15.97;;;8.07;;
16242;SDS011;11719;51.052;6.982;2023-11-21T08:52:44;14.70;;;8.00;;
16242;SDS011;11719;51.052;6.982;2023-11-21T08:55:11;6.63;;;4.30;;
16242;SDS011;11719;51.052;6.982;2023-11-21T08:57:38;5.13;;;3.53;;
16242;SDS011;11719;51.052;6.982;2023-11-21T09:00:06;4.73;;;3.03;;
16242;SDS011;11719;51.052;6.982;2023-11-21T09:02:40;8.37;;;3.60;;
16242;SDS011;11719;51.052;6.982;2023-11-21T09:05:10;4.40;;;2.93;;
16242;SDS011;11719;51.052;6.982;2023-11-21T09:07:37;5.90;;;3.17;;
16242;SDS011;11719;51.052;6.982;2023-11-21T09:10:06;5.27;;;2.83;;
16242;SDS011;11719;51.052;6.982;2023-11-21T09:17:44;21.50;;;8.70;;
16242;SDS011;11719;51.052;6.982;2023-11-21T09:20:15;18.67;;;8.03;;
16242;SDS011;11719;51.052;6.982;2023-11-21T09:22:41;13.53;;;7.67;;
16242;SDS011;11719;51.052;6.982;2023-11-21T09:25:07;20.10;;;8.70;;
16242;SDS011;11719;51.052;6.982;2023-11-21T09:27:34;18.13;;;8.27;;
16242;SDS011;11719;51.052;6.982;2023-11-21T09:30:03;21.27;;;9.27;;
16242;SDS011;11719;51.052;6.982;2023-11-21T09:32:30;22.17;;;9.07;;
16242;SDS011;11719;51.052;6.982;2023-11-21T09:35:00;20.50;;;9.83;;
16242;SDS011;11719;51.052;6.982;2023-11-21T09:37:29;21.87;;;9.57;;
16242;SDS011;11719;51.052;6.982;2023-11-21T09:39:56;22.53;;;9.30;;
16242;SDS011;11719;51.052;6.982;2023-11-21T09:42:37;17.77;;;8.77;;
16242;SDS011;11719;51.052;6.982;2023-11-21T09:47:54;20.73;;;9.63;;
16242;SDS011;11719;51.052;6.982;2023-11-21T09:50:21;23.23;;;9.57;;
16242;SDS011;11719;51.052;6.982;2023-11-21T09:55:49;23.10;;;9.90;;
16242;SDS011;11719;51.052;6.982;2023-11-21T09:58:18;22.63;;;9.30;;
16242;SDS011;11719;51.052;6.982;2023-11-21T10:00:49;19.53;;;9.93;;
16242;SDS011;11719;51.052;6.982;2023-11-21T10:03:21;22.13;;;10.00;;
16242;SDS011;11719;51.052;6.982;2023-11-21T10:05:48;19.20;;;8.63;;
16242;SDS011;11719;51.052;6.982;2023-11-21T10:08:24;19.70;;;8.93;;
16242;SDS011;11719;51.052;6.982;2023-11-21T10:10:53;17.97;;;8.87;;
16242;SDS011;11719;51.052;6.982;2023-11-21T10:13:21;21.80;;;10.23;;
16242;SDS011;11719;51.052;6.982;2023-11-21T10:15:49;20.33;;;9.67;;
16242;SDS011;11719;51.052;6.982;2023-11-21T10:18:17;26.50;;;10.43;;
16242;SDS011;11719;51.052;6.982;2023-11-21T10:20:44;17.10;;;8.03;;
16242;SDS011;11719;51.052;6.982;2023-11-21T10:23:17;20.50;;;8.37;;
16242;SDS011;11719;51.052;6.982;2023-11-21T10:25:46;23.23;;;9.30;;
16242;SDS011;11719;51.052;6.982;2023-11-21T10:28:11;22.07;;;10.10;;
16242;SDS011;11719;51.052;6.982;2023-11-21T10:30:38;17.90;;;9.47;;
16242;SDS011;11719;51.052;6.982;2023-11-21T10:33:05;16.03;;;7.27;;
16242;SDS011;11719;51.052;6.982;2023-11-21T10:35:46;18.67;;;8.30;;
16242;SDS011;11719;51.052;6.982;2023-11-21T10:38:19;18.93;;;8.90;;
16242;SDS011;11719;51.052;6.982;2023-11-21T10:40:48;18.20;;;8.90;;
16242;SDS011;11719;51.052;6.982;2023-11-21T10:43:15;23.90;;;9.40;;
16242;SDS011;11719;51.052;6.982;2023-11-21T10:45:42;20.90;;;9.87;;
16242;SDS011;11719;51.052;6.982;2023-11-21T10:48:09;26.63;;;8.87;;
16242;SDS011;11719;51.052;6.982;2023-11-21T10:50:38;19.00;;;9.10;;
16242;SDS011;11719;51.052;6.982;2023-11-21T10:53:04;22.00;;;9.30;;
16242;SDS011;11719;51.052;6.982;2023-11-21T10:55:31;24.87;;;10.07;;
16242;SDS011;11719;51.052;6.982;2023-11-21T10:58:01;22.63;;;9.77;;
16242;SDS011;11719;51.052;6.982;2023-11-21T11:00:30;20.97;;;8.47;;
16242;SDS011;11719;51.052;6.982;2023-11-21T11:02:57;23.60;;;9.53;;
16242;SDS011;11719;51.052;6.982;2023-11-21T11:05:25;16.43;;;6.97;;
16242;SDS011;11719;51.052;6.982;2023-11-21T11:08:07;23.37;;;9.43;;
16242;SDS011;11719;51.052;6.982;2023-11-21T11:10:37;27.93;;;11.10;;
16242;SDS011;11719;51.052;6.982;2023-11-21T11:13:03;25.07;;;10.67;;
16242;SDS011;11719;51.052;6.982;2023-11-21T11:15:32;24.93;;;9.10;;
16242;SDS011;11719;51.052;6.982;2023-11-21T11:17:58;20.93;;;9.30;;
16242;SDS011;11719;51.052;6.982;2023-11-21T11:20:30;20.20;;;9.13;;
16242;SDS011;11719;51.052;6.982;2023-11-21T11:26:24;23.30;;;9.53;;
16242;SDS011;11719;51.052;6.982;2023-11-21T11:38:03;26.40;;;9.23;;
16242;SDS011;11719;51.052;6.982;2023-11-21T11:40:39;20.77;;;8.23;;
16242;SDS011;11719;51.052;6.982;2023-11-21T11:43:07;19.53;;;8.57;;
16242;SDS011;11719;51.052;6.982;2023-11-21T11:45:33;25.23;;;8.57;;
16242;SDS011;11719;51.052;6.982;2023-11-21T11:48:06;28.10;;;9.63;;
16242;SDS011;11719;51.052;6.982;2023-11-21T11:50:33;20.67;;;9.17;;
16242;SDS011;11719;51.052;6.982;2023-11-21T11:53:12;22.43;;;9.70;;
16242;SDS011;11719;51.052;6.982;2023-11-21T11:55:40;24.20;;;9.03;;
16242;SDS011;11719;51.052;6.982;2023-11-21T11:58:06;26.40;;;8.97;;
16242;SDS011;11719;51.052;6.982;2023-11-21T12:00:33;22.77;;;9.03;;
16242;SDS011;11719;51.052;6.982;2023-11-21T12:03:03;19.17;;;8.47;;
16242;SDS011;11719;51.052;6.982;2023-11-21T12:05:32;13.17;;;6.07;;
16242;SDS011;11719;51.052;6.982;2023-11-21T12:08:09;26.63;;;9.07;;
16242;SDS011;11719;51.052;6.982;2023-11-21T12:10:36;19.83;;;9.27;;
16242;SDS011;11719;51.052;6.982;2023-11-21T12:13:08;22.50;;;8.63;;
16242;SDS011;11719;51.052;6.982;2023-11-21T12:15:37;19.60;;;8.87;;
16242;SDS011;11719;51.052;6.982;2023-11-21T12:18:03;18.40;;;8.07;;
16242;SDS011;11719;51.052;6.982;2023-11-21T12:20:30;21.67;;;8.27;;
16242;SDS011;11719;51.052;6.982;2023-11-21T12:23:00;24.27;;;9.30;;
16242;SDS011;11719;51.052;6.982;2023-11-21T12:25:30;20.80;;;8.67;;
16242;SDS011;11719;51.052;6.982;2023-11-21T12:27:58;15.10;;;6.93;;
16242;SDS011;11719;51.052;6.982;2023-11-21T12:30:26;26.73;;;9.13;;
16242;SDS011;11719;51.052;6.982;2023-11-21T12:32:56;23.07;;;8.93;;
16242;SDS011;11719;51.052;6.982;2023-11-21T12:35:24;26.80;;;10.27;;
16242;SDS011;11719;51.052;6.982;2023-11-21T12:37:52;22.60;;;9.63;;
16242;SDS011;11719;51.052;6.982;2023-11-21T12:40:20;25.63;;;9.70;;
16242;SDS011;11719;51.052;6.982;2023-11-21T12:42:48;23.13;;;9.33;;
16242;SDS011;11719;51.052;6.982;2023-11-21T12:47:51;25.50;;;9.20;;
16242;SDS011;11719;51.052;6.982;2023-11-21T12:50:20;26.43;;;9.17;;
16242;SDS011;11719;51.052;6.982;2023-11-21T12:52:54;25.33;;;9.27;;
16242;SDS011;11719;51.052;6.982;2023-11-21T12:55:34;21.33;;;8.83;;
16242;SDS011;11719;51.052;6.982;2023-11-21T12:58:04;23.13;;;9.40;;
16242;SDS011;11719;51.052;6.982;2023-11-21T13:00:35;20.77;;;9.37;;
16242;SDS011;11719;51.052;6.982;2023-11-21T13:03:12;24.47;;;9.03;;
16242;SDS011;11719;51.052;6.982;2023-11-21T13:05:44;25.80;;;10.33;;
16242;SDS011;11719;51.052;6.982;2023-11-21T13:08:16;26.47;;;8.97;;
16242;SDS011;11719;51.052;6.982;2023-11-21T13:10:48;21.50;;;8.53;;
16242;SDS011;11719;51.052;6.982;2023-11-21T13:13:20;24.40;;;9.50;;
16242;SDS011;11719;51.052;6.982;2023-11-21T13:15:50;22.13;;;8.73;;
16242;SDS011;11719;51.052;6.982;2023-11-21T13:18:26;18.27;;;7.50;;
16242;SDS011;11719;51.052;6.982;2023-11-21T13:20:56;18.13;;;8.27;;
16242;SDS011;11719;51.052;6.982;2023-11-21T13:23:37;17.77;;;7.70;;
16242;SDS011;11719;51.052;6.982;2023-11-21T13:26:03;19.20;;;7.10;;
16242;SDS011;11719;51.052;6.982;2023-11-21T13:28:30;17.30;;;6.93;;
16242;SDS011;11719;51.052;6.982;2023-11-21T13:30:58;20.40;;;7.60;;
16242;SDS011;11719;51.052;6.982;2023-11-21T13:33:34;16.17;;;6.50;;
16242;SDS011;11719;51.052;6.982;2023-11-21T13:36:03;12.67;;;6.17;;
16242;SDS011;11719;51.052;6.982;2023-11-21T13:38:40;17.97;;;7.43;;
16242;SDS011;11719;51.052;6.982;2023-11-21T13:41:11;35.97;;;13.63;;
16242;SDS011;11719;51.052;6.982;2023-11-21T13:43:41;30.87;;;12.43;;
16242;SDS011;11719;51.052;6.982;2023-11-21T13:46:12;21.23;;;8.27;;
16242;SDS011;11719;51.052;6.982;2023-11-21T13:48:43;17.33;;;7.30;;
16242;SDS011;11719;51.052;6.982;2023-11-21T13:51:15;19.50;;;8.30;;
16242;SDS011;11719;51.052;6.982;2023-11-21T13:53:48;21.43;;;8.97;;
16242;SDS011;11719;51.052;6.982;2023-11-21T13:56:18;23.27;;;8.60;;
16242;SDS011;11719;51.052;6.982;2023-11-21T13:58:49;25.90;;;8.63;;
16242;SDS011;11719;51.052;6.982;2023-11-21T14:01:19;13.27;;;6.70;;
16242;SDS011;11719;51.052;6.982;2023-11-21T14:06:34;24.07;;;9.77;;
16242;SDS011;11719;51.052;6.982;2023-11-21T14:09:12;23.93;;;8.83;;
16242;SDS011;11719;51.052;6.982;2023-11-21T14:11:43;27.00;;;9.37;;
16242;SDS011;11719;51.052;6.982;2023-11-21T14:14:10;26.23;;;8.80;;
16242;SDS011;11719;51.052;6.982;2023-11-21T14:16:36;27.30;;;9.53;;
16242;SDS011;11719;51.052;6.982;2023-11-21T14:19:02;26.83;;;9.43;;
16242;SDS011;11719;51.052;6.982;2023-11-21T14:21:40;20.73;;;7.90;;
16242;SDS011;11719;51.052;6.982;2023-11-21T14:24:10;15.70;;;6.30;;
16242;SDS011;11719;51.052;6.982;2023-11-21T14:26:43;13.37;;;6.17;;
16242;SDS011;11719;51.052;6.982;2023-11-21T14:29:11;23.63;;;9.80;;
16242;SDS011;11719;51.052;6.982;2023-11-21T14:31:41;21.87;;;9.50;;
16242;SDS011;11719;51.052;6.982;2023-11-21T14:34:07;24.47;;;8.77;;
16242;SDS011;11719;51.052;6.982;2023-11-21T14:36:34;22.57;;;8.37;;
16242;SDS011;11719;51.052;6.982;2023-11-21T14:39:02;15.60;;;6.50;;
16242;SDS011;11719;51.052;6.982;2023-11-21T14:41:32;35.27;;;13.67;;
16242;SDS011;11719;51.052;6.982;2023-11-21T14:44:00;29.93;;;11.20;;
16242;SDS011;11719;51.052;6.982;2023-11-21T14:46:29;23.60;;;11.43;;
16242;SDS011;11719;51.052;6.982;2023-11-21T14:48:55;21.60;;;9.23;;
16242;SDS011;11719;51.052;6.982;2023-11-21T14:51:38;22.43;;;9.33;;
16242;SDS011;11719;51.052;6.982;2023-11-21T14:54:24;20.67;;;8.77;;
16242;SDS011;11719;51.052;6.982;2023-11-21T14:57:05;23.23;;;11.00;;
16242;SDS011;11719;51.052;6.982;2023-11-21T14:59:43;22.97;;;9.50;;
16242;SDS011;11719;51.052;6.982;2023-11-21T15:02:17;23.57;;;9.03;;
16242;SDS011;11719;51.052;6.982;2023-11-21T15:04:47;28.57;;;11.23;;
16242;SDS011;11719;51.052;6.982;2023-11-21T15:07:17;26.07;;;10.13;;
16242;SDS011;11719;51.052;6.982;2023-11-21T15:09:43;25.30;;;9.97;;
16242;SDS011;11719;51.052;6.982;2023-11-21T15:12:10;24.37;;;9.93;;
16242;SDS011;11719;51.052;6.982;2023-11-21T15:14:40;22.33;;;9.67;;
16242;SDS011;11719;51.052;6.982;2023-11-21T15:17:10;28.73;;;9.73;;